sensor_id;sensor_type;location;lat;lon;timestamp;P1;durP1;ratioP1;P2;durP2;ratioP2
16640;SDS011;8434;47.990;7.880;2022-10-18T00:00:20;10.17;;;2.70;;
16640;SDS011;8434;47.990;7.880;2022-10-18T00:03:05;8.17;;;2.57;;
16640;SDS011;8434;47.990;7.880;2022-10-18T00:05:51;2.73;;;2.40;;
16640;SDS011;8434;47.990;7.880;2022-10-18T00:08:37;2.70;;;2.10;;
16640;SDS011;8434;47.990;7.880;2022-10-18T00:11:22;5.63;;;2.27;;
16640;SDS011;8434;47.990;7.880;2022-10-18T00:14:08;9.57;;;2.97;;
16640;SDS011;8434;47.990;7.880;2022-10-18T00:16:53;6.03;;;2.40;;
16640;SDS011;8434;47.990;7.880;2022-10-18T00:19:37;7.53;;;2.40;;
16640;SDS011;8434;47.990;7.880;2022-10-18T00:22:22;5.30;;;2.23;;
16640;SDS011;8434;47.990;7.880;2022-10-18T00:25:09;3.77;;;2.20;;
16640;SDS011;8434;47.990;7.880;2022-10-18T00:27:54;5.47;;;2.70;;
16640;SDS011;8434;47.990;7.880;2022-10-18T00:30:39;4.13;;;2.30;;
16640;SDS011;8434;47.990;7.880;2022-10-18T00:33:24;4.60;;;2.00;;
16640;SDS011;8434;47.990;7.880;2022-10-18T00:36:09;10.33;;;2.60;;
16640;SDS011;8434;47.990;7.880;2022-10-18T00:38:54;6.50;;;2.33;;
16640;SDS011;8434;47.990;7.880;2022-10-18T00:41:40;7.43;;;2.30;;
16640;SDS011;8434;47.990;7.880;2022-10-18T00:47:29;5.83;;;2.60;;
16640;SDS011;8434;47.990;7.880;2022-10-18T00:50:14;13.60;;;3.00;;
16640;SDS011;8434;47.990;7.880;2022-10-18T00:53:00;4.67;;;2.67;;
16640;SDS011;8434;47.990;7.880;2022-10-18T00:55:46;7.60;;;3.10;;
16640;SDS011;8434;47.990;7.880;2022-10-18T00:58:32;8.70;;;2.40;;
16640;SDS011;8434;47.990;7.880;2022-10-18T01:01:18;4.73;;;2.67;;
16640;SDS011;8434;47.990;7.880;2022-10-18T01:04:03;3.40;;;2.30;;
16640;SDS011;8434;47.990;7.880;2022-10-18T01:06:51;6.70;;;2.70;;
16640;SDS011;8434;47.990;7.880;2022-10-18T01:09:40;6.30;;;3.70;;
16640;SDS011;8434;47.990;7.880;2022-10-18T01:12:31;11.50;;;3.47;;
16640;SDS011;8434;47.990;7.880;2022-10-18T01:15:22;7.07;;;2.33;;
16640;SDS011;8434;47.990;7.880;2022-10-18T01:18:11;6.43;;;2.57;;
16640;SDS011;8434;47.990;7.880;2022-10-18T01:21:03;4.57;;;2.37;;
16640;SDS011;8434;47.990;7.880;2022-10-18T01:27:14;6.40;;;2.37;;
16640;SDS011;8434;47.990;7.880;2022-10-18T01:33:11;6.07;;;2.50;;
16640;SDS011;8434;47.990;7.880;2022-10-18T01:35:59;4.90;;;3.10;;
16640;SDS011;8434;47.990;7.880;2022-10-18T01:38:46;4.53;;;2.33;;
16640;SDS011;8434;47.990;7.880;2022-10-18T01:41:32;5.90;;;2.10;;
16640;SDS011;8434;47.990;7.880;2022-10-18T01:44:19;3.73;;;2.70;;
16640;SDS011;8434;47.990;7.880;2022-10-18T01:47:05;8.33;;;2.80;;
16640;SDS011;8434;47.990;7.880;2022-10-18T01:49:56;5.87;;;2.83;;
16640;SDS011;8434;47.990;7.880;2022-10-18T01:52:48;7.73;;;2.73;;
16640;SDS011;8434;47.990;7.880;2022-10-18T01:55:36;4.30;;;2.50;;
16640;SDS011;8434;47.990;7.880;2022-10-18T01:58:23;6.87;;;2.90;;
16640;SDS011;8434;47.990;7.880;2022-10-18T02:01:14;7.73;;;2.63;;
16640;SDS011;8434;47.990;7.880;2022-10-18T02:04:04;6.20;;;2.50;;
16640;SDS011;8434;47.990;7.880;2022-10-18T02:06:52;5.37;;;2.77;;
16640;SDS011;8434;47.990;7.880;2022-10-18T02:09:40;4.87;;;2.60;;
16640;SDS011;8434;47.990;7.880;2022-10-18T02:12:28;3.90;;;2.30;;
16640;SDS011;8434;47.990;7.880;2022-10-18T02:15:16;6.40;;;2.80;;
16640;SDS011;8434;47.990;7.880;2022-10-18T02:18:04;8.30;;;2.70;;
16640;SDS011;8434;47.990;7.880;2022-10-18T02:20:50;4.90;;;2.50;;
16640;SDS011;8434;47.990;7.880;2022-10-18T02:23:37;4.80;;;2.73;;
16640;SDS011;8434;47.990;7.880;2022-10-18T02:26:22;7.10;;;2.70;;
16640;SDS011;8434;47.990;7.880;2022-10-18T02:29:07;3.60;;;2.73;;
16640;SDS011;8434;47.990;7.880;2022-10-18T02:31:54;5.87;;;2.70;;
16640;SDS011;8434;47.990;7.880;2022-10-18T02:34:41;7.97;;;3.03;;
16640;SDS011;8434;47.990;7.880;2022-10-18T02:37:27;4.00;;;2.87;;
16640;SDS011;8434;47.990;7.880;2022-10-18T02:40:15;6.27;;;2.73;;
16640;SDS011;8434;47.990;7.880;2022-10-18T02:43:01;8.60;;;2.97;;
16640;SDS011;8434;47.990;7.880;2022-10-18T02:45:46;7.07;;;3.10;;
16640;SDS011;8434;47.990;7.880;2022-10-18T02:48:30;9.60;;;2.77;;
16640;SDS011;8434;47.990;7.880;2022-10-18T02:51:15;5.80;;;3.33;;
16640;SDS011;8434;47.990;7.880;2022-10-18T02:54:00;5.17;;;2.97;;
16640;SDS011;8434;47.990;7.880;2022-10-18T02:56:46;5.37;;;2.47;;
16640;SDS011;8434;47.990;7.880;2022-10-18T02:59:31;3.67;;;2.90;;
16640;SDS011;8434;47.990;7.880;2022-10-18T03:02:16;5.17;;;2.77;;
16640;SDS011;8434;47.990;7.880;2022-10-18T03:05:01;10.57;;;3.47;;
16640;SDS011;8434;47.990;7.880;2022-10-18T03:07:46;10.40;;;3.50;;
16640;SDS011;8434;47.990;7.880;2022-10-18T03:10:31;5.83;;;3.30;;
16640;SDS011;8434;47.990;7.880;2022-10-18T03:13:17;10.23;;;2.43;;
16640;SDS011;8434;47.990;7.880;2022-10-18T03:16:02;5.63;;;2.70;;
16640;SDS011;8434;47.990;7.880;2022-10-18T03:18:47;7.43;;;2.90;;
16640;SDS011;8434;47.990;7.880;2022-10-18T03:21:32;12.33;;;3.13;;
16640;SDS011;8434;47.990;7.880;2022-10-18T03:24:17;9.47;;;3.50;;
16640;SDS011;8434;47.990;7.880;2022-10-18T03:27:02;6.70;;;3.10;;
16640;SDS011;8434;47.990;7.880;2022-10-18T03:29:48;9.63;;;3.27;;
16640;SDS011;8434;47.990;7.880;2022-10-18T03:32:33;8.50;;;3.40;;
16640;SDS011;8434;47.990;7.880;2022-10-18T03:35:19;6.87;;;3.70;;
16640;SDS011;8434;47.990;7.880;2022-10-18T03:38:04;9.10;;;3.13;;
16640;SDS011;8434;47.990;7.880;2022-10-18T03:40:49;11.70;;;4.07;;
16640;SDS011;8434;47.990;7.880;2022-10-18T03:43:34;4.13;;;3.17;;
16640;SDS011;8434;47.990;7.880;2022-10-18T03:46:20;7.03;;;3.13;;
16640;SDS011;8434;47.990;7.880;2022-10-18T03:49:05;9.30;;;3.30;;
16640;SDS011;8434;47.990;7.880;2022-10-18T03:51:50;6.80;;;3.20;;
16640;SDS011;8434;47.990;7.880;2022-10-18T03:54:34;6.17;;;3.30;;
16640;SDS011;8434;47.990;7.880;2022-10-18T03:57:19;4.73;;;3.60;;
16640;SDS011;8434;47.990;7.880;2022-10-18T04:00:05;10.60;;;4.03;;
16640;SDS011;8434;47.990;7.880;2022-10-18T04:02:52;9.33;;;4.07;;
16640;SDS011;8434;47.990;7.880;2022-10-18T04:05:36;7.27;;;3.37;;
16640;SDS011;8434;47.990;7.880;2022-10-18T04:08:21;9.87;;;3.40;;
16640;SDS011;8434;47.990;7.880;2022-10-18T04:11:06;6.50;;;3.50;;
16640;SDS011;8434;47.990;7.880;2022-10-18T04:13:52;9.73;;;3.37;;
16640;SDS011;8434;47.990;7.880;2022-10-18T04:16:37;9.90;;;3.87;;
16640;SDS011;8434;47.990;7.880;2022-10-18T04:19:23;4.83;;;3.00;;
16640;SDS011;8434;47.990;7.880;2022-10-18T04:22:08;8.67;;;3.80;;
16640;SDS011;8434;47.990;7.880;2022-10-18T04:24:54;11.43;;;3.87;;
16640;SDS011;8434;47.990;7.880;2022-10-18T04:27:40;14.10;;;4.00;;
16640;SDS011;8434;47.990;7.880;2022-10-18T04:30:24;5.37;;;3.40;;
16640;SDS011;8434;47.990;7.880;2022-10-18T04:33:09;14.23;;;3.87;;
16640;SDS011;8434;47.990;7.880;2022-10-18T04:35:56;8.73;;;3.20;;
16640;SDS011;8434;47.990;7.880;2022-10-18T04:38:41;6.83;;;3.67;;
16640;SDS011;8434;47.990;7.880;2022-10-18T04:41:26;14.20;;;4.43;;
16640;SDS011;8434;47.990;7.880;2022-10-18T04:44:11;5.47;;;3.10;;
16640;SDS011;8434;47.990;7.880;2022-10-18T04:46:55;7.37;;;4.17;;
16640;SDS011;8434;47.990;7.880;2022-10-18T04:49:40;7.33;;;3.60;;
16640;SDS011;8434;47.990;7.880;2022-10-18T04:52:27;4.30;;;3.60;;
16640;SDS011;8434;47.990;7.880;2022-10-18T04:55:12;9.33;;;3.40;;
16640;SDS011;8434;47.990;7.880;2022-10-18T05:00:38;6.70;;;3.47;;
16640;SDS011;8434;47.990;7.880;2022-10-18T05:03:24;8.27;;;3.40;;
16640;SDS011;8434;47.990;7.880;2022-10-18T05:06:09;6.87;;;3.97;;
16640;SDS011;8434;47.990;7.880;2022-10-18T05:08:55;10.63;;;4.23;;
16640;SDS011;8434;47.990;7.880;2022-10-18T05:11:40;9.53;;;4.13;;
16640;SDS011;8434;47.990;7.880;2022-10-18T05:14:25;9.67;;;3.20;;
16640;SDS011;8434;47.990;7.880;2022-10-18T05:17:10;18.37;;;5.57;;
16640;SDS011;8434;47.990;7.880;2022-10-18T05:19:55;9.00;;;3.30;;
16640;SDS011;8434;47.990;7.880;2022-10-18T05:22:40;11.60;;;3.90;;
16640;SDS011;8434;47.990;7.880;2022-10-18T05:25:26;10.53;;;4.07;;
16640;SDS011;8434;47.990;7.880;2022-10-18T05:28:12;5.70;;;4.03;;
16640;SDS011;8434;47.990;7.880;2022-10-18T05:30:59;6.70;;;4.00;;
16640;SDS011;8434;47.990;7.880;2022-10-18T05:33:44;9.70;;;3.90;;
16640;SDS011;8434;47.990;7.880;2022-10-18T05:36:28;6.03;;;3.90;;
16640;SDS011;8434;47.990;7.880;2022-10-18T05:39:13;8.40;;;4.03;;
16640;SDS011;8434;47.990;7.880;2022-10-18T05:42:00;6.43;;;3.73;;
16640;SDS011;8434;47.990;7.880;2022-10-18T05:44:45;7.47;;;3.43;;
16640;SDS011;8434;47.990;7.880;2022-10-18T05:47:30;4.87;;;3.53;;
16640;SDS011;8434;47.990;7.880;2022-10-18T05:50:15;8.37;;;4.40;;
16640;SDS011;8434;47.990;7.880;2022-10-18T05:53:00;9.13;;;4.00;;
16640;SDS011;8434;47.990;7.880;2022-10-18T05:55:45;5.63;;;3.70;;
16640;SDS011;8434;47.990;7.880;2022-10-18T05:58:31;4.53;;;4.03;;
16640;SDS011;8434;47.990;7.880;2022-10-18T06:01:17;7.00;;;3.70;;
16640;SDS011;8434;47.990;7.880;2022-10-18T06:04:02;5.63;;;4.03;;
16640;SDS011;8434;47.990;7.880;2022-10-18T06:06:46;13.10;;;3.77;;
16640;SDS011;8434;47.990;7.880;2022-10-18T06:09:31;5.23;;;3.23;;
16640;SDS011;8434;47.990;7.880;2022-10-18T06:12:16;6.10;;;3.43;;
16640;SDS011;8434;47.990;7.880;2022-10-18T06:15:03;10.03;;;4.20;;
16640;SDS011;8434;47.990;7.880;2022-10-18T06:17:48;7.47;;;3.63;;
16640;SDS011;8434;47.990;7.880;2022-10-18T06:20:33;4.60;;;3.47;;
16640;SDS011;8434;47.990;7.880;2022-10-18T06:23:17;4.93;;;3.57;;
16640;SDS011;8434;47.990;7.880;2022-10-18T06:26:03;6.07;;;3.03;;
16640;SDS011;8434;47.990;7.880;2022-10-18T06:28:48;3.60;;;3.30;;
16640;SDS011;8434;47.990;7.880;2022-10-18T06:31:35;6.73;;;3.00;;
16640;SDS011;8434;47.990;7.880;2022-10-18T06:34:20;3.77;;;2.93;;
16640;SDS011;8434;47.990;7.880;2022-10-18T06:37:05;3.50;;;3.00;;
16640;SDS011;8434;47.990;7.880;2022-10-18T06:39:50;5.57;;;3.03;;
16640;SDS011;8434;47.990;7.880;2022-10-18T06:42:35;5.47;;;3.17;;
16640;SDS011;8434;47.990;7.880;2022-10-18T06:45:20;5.07;;;3.03;;
16640;SDS011;8434;47.990;7.880;2022-10-18T06:48:06;4.40;;;2.63;;
16640;SDS011;8434;47.990;7.880;2022-10-18T06:50:52;4.97;;;3.90;;
16640;SDS011;8434;47.990;7.880;2022-10-18T06:53:38;4.80;;;2.93;;
16640;SDS011;8434;47.990;7.880;2022-10-18T06:56:23;7.20;;;3.40;;
16640;SDS011;8434;47.990;7.880;2022-10-18T06:59:08;5.50;;;2.33;;
16640;SDS011;8434;47.990;7.880;2022-10-18T07:01:53;4.77;;;2.30;;
16640;SDS011;8434;47.990;7.880;2022-10-18T07:04:39;3.40;;;2.50;;
16640;SDS011;8434;47.990;7.880;2022-10-18T07:07:24;3.57;;;2.30;;
16640;SDS011;8434;47.990;7.880;2022-10-18T07:10:09;3.87;;;3.00;;
16640;SDS011;8434;47.990;7.880;2022-10-18T07:12:54;5.47;;;2.70;;
16640;SDS011;8434;47.990;7.880;2022-10-18T07:15:39;3.87;;;2.80;;
16640;SDS011;8434;47.990;7.880;2022-10-18T07:18:24;4.03;;;2.60;;
16640;SDS011;8434;47.990;7.880;2022-10-18T07:21:11;3.93;;;2.60;;
16640;SDS011;8434;47.990;7.880;2022-10-18T07:23:56;5.53;;;2.73;;
16640;SDS011;8434;47.990;7.880;2022-10-18T07:26:41;4.10;;;2.93;;
16640;SDS011;8434;47.990;7.880;2022-10-18T07:29:26;4.30;;;2.80;;
16640;SDS011;8434;47.990;7.880;2022-10-18T07:32:11;5.13;;;2.60;;
16640;SDS011;8434;47.990;7.880;2022-10-18T07:34:56;4.70;;;2.60;;
16640;SDS011;8434;47.990;7.880;2022-10-18T07:37:43;4.53;;;3.20;;
16640;SDS011;8434;47.990;7.880;2022-10-18T07:40:28;5.07;;;2.47;;
16640;SDS011;8434;47.990;7.880;2022-10-18T07:43:13;4.80;;;2.20;;
16640;SDS011;8434;47.990;7.880;2022-10-18T07:45:58;5.17;;;2.77;;
16640;SDS011;8434;47.990;7.880;2022-10-18T07:48:43;4.85;;;2.92;;
16640;SDS011;8434;47.990;7.880;2022-10-18T07:51:28;3.65;;;2.28;;
16640;SDS011;8434;47.990;7.880;2022-10-18T07:54:16;2.70;;;2.30;;
16640;SDS011;8434;47.990;7.880;2022-10-18T07:57:02;4.05;;;2.20;;
16640;SDS011;8434;47.990;7.880;2022-10-18T07:59:47;5.45;;;2.13;;
16640;SDS011;8434;47.990;7.880;2022-10-18T08:02:39;3.38;;;2.30;;
16640;SDS011;8434;47.990;7.880;2022-10-18T08:05:23;8.07;;;2.50;;
16640;SDS011;8434;47.990;7.880;2022-10-18T08:08:09;4.45;;;2.58;;
16640;SDS011;8434;47.990;7.880;2022-10-18T08:10:58;5.32;;;2.10;;
16640;SDS011;8434;47.990;7.880;2022-10-18T08:13:45;4.60;;;2.47;;
16640;SDS011;8434;47.990;7.880;2022-10-18T08:16:30;4.43;;;2.63;;
16640;SDS011;8434;47.990;7.880;2022-10-18T08:19:15;5.57;;;2.40;;
16640;SDS011;8434;47.990;7.880;2022-10-18T08:22:00;2.88;;;2.45;;
16640;SDS011;8434;47.990;7.880;2022-10-18T08:24:45;4.80;;;2.60;;
16640;SDS011;8434;47.990;7.880;2022-10-18T08:27:31;4.00;;;2.20;;
16640;SDS011;8434;47.990;7.880;2022-10-18T08:30:16;5.60;;;2.55;;
16640;SDS011;8434;47.990;7.880;2022-10-18T08:33:01;8.23;;;2.70;;
16640;SDS011;8434;47.990;7.880;2022-10-18T08:35:53;3.45;;;1.98;;
16640;SDS011;8434;47.990;7.880;2022-10-18T08:38:39;6.05;;;2.70;;
16640;SDS011;8434;47.990;7.880;2022-10-18T08:41:31;3.10;;;2.10;;
16640;SDS011;8434;47.990;7.880;2022-10-18T08:44:24;3.05;;;2.22;;
16640;SDS011;8434;47.990;7.880;2022-10-18T08:47:11;2.67;;;2.05;;
16640;SDS011;8434;47.990;7.880;2022-10-18T08:49:58;4.20;;;2.50;;
16640;SDS011;8434;47.990;7.880;2022-10-18T08:52:47;4.40;;;2.42;;
16640;SDS011;8434;47.990;7.880;2022-10-18T08:55:37;5.30;;;2.75;;
16640;SDS011;8434;47.990;7.880;2022-10-18T08:58:23;3.22;;;2.30;;
16640;SDS011;8434;47.990;7.880;2022-10-18T09:01:14;2.88;;;2.28;;
16640;SDS011;8434;47.990;7.880;2022-10-18T09:04:08;3.50;;;2.35;;
16640;SDS011;8434;47.990;7.880;2022-10-18T09:07:03;4.63;;;2.80;;
16640;SDS011;8434;47.990;7.880;2022-10-18T09:09:51;3.22;;;2.45;;
16640;SDS011;8434;47.990;7.880;2022-10-18T09:12:42;3.58;;;2.10;;
16640;SDS011;8434;47.990;7.880;2022-10-18T09:15:34;4.95;;;2.72;;
16640;SDS011;8434;47.990;7.880;2022-10-18T09:18:28;3.08;;;2.03;;
16640;SDS011;8434;47.990;7.880;2022-10-18T09:21:17;3.95;;;2.40;;
16640;SDS011;8434;47.990;7.880;2022-10-18T09:24:04;2.72;;;2.03;;
16640;SDS011;8434;47.990;7.880;2022-10-18T09:26:49;3.80;;;2.10;;
16640;SDS011;8434;47.990;7.880;2022-10-18T09:29:41;3.65;;;2.40;;
16640;SDS011;8434;47.990;7.880;2022-10-18T09:32:32;4.75;;;2.30;;
16640;SDS011;8434;47.990;7.880;2022-10-18T09:35:26;3.22;;;1.90;;
16640;SDS011;8434;47.990;7.880;2022-10-18T09:38:12;7.90;;;2.65;;
16640;SDS011;8434;47.990;7.880;2022-10-18T09:41:00;3.38;;;2.60;;
16640;SDS011;8434;47.990;7.880;2022-10-18T09:43:51;3.55;;;2.00;;
16640;SDS011;8434;47.990;7.880;2022-10-18T09:46:39;2.63;;;2.20;;
16640;SDS011;8434;47.990;7.880;2022-10-18T09:49:27;4.65;;;1.95;;
16640;SDS011;8434;47.990;7.880;2022-10-18T09:52:15;3.30;;;2.00;;
16640;SDS011;8434;47.990;7.880;2022-10-18T09:55:02;4.35;;;2.20;;
16640;SDS011;8434;47.990;7.880;2022-10-18T09:57:49;10.88;;;2.78;;
16640;SDS011;8434;47.990;7.880;2022-10-18T10:00:37;3.90;;;2.75;;
16640;SDS011;8434;47.990;7.880;2022-10-18T10:03:24;3.22;;;2.10;;
16640;SDS011;8434;47.990;7.880;2022-10-18T10:06:20;6.65;;;2.05;;
16640;SDS011;8434;47.990;7.880;2022-10-18T10:09:13;2.15;;;1.85;;
16640;SDS011;8434;47.990;7.880;2022-10-18T10:11:58;5.07;;;2.33;;
16640;SDS011;8434;47.990;7.880;2022-10-18T10:14:45;3.33;;;2.15;;
16640;SDS011;8434;47.990;7.880;2022-10-18T10:17:30;3.65;;;1.98;;
16640;SDS011;8434;47.990;7.880;2022-10-18T10:20:20;3.55;;;1.90;;
16640;SDS011;8434;47.990;7.880;2022-10-18T10:23:07;3.80;;;1.90;;
16640;SDS011;8434;47.990;7.880;2022-10-18T10:25:55;4.72;;;2.13;;
16640;SDS011;8434;47.990;7.880;2022-10-18T10:28:42;3.70;;;2.40;;
16640;SDS011;8434;47.990;7.880;2022-10-18T10:31:29;8.32;;;2.08;;
16640;SDS011;8434;47.990;7.880;2022-10-18T10:34:17;3.55;;;2.08;;
16640;SDS011;8434;47.990;7.880;2022-10-18T10:37:08;5.18;;;2.17;;
16640;SDS011;8434;47.990;7.880;2022-10-18T10:40:12;4.63;;;2.40;;
16640;SDS011;8434;47.990;7.880;2022-10-18T10:43:00;3.35;;;2.25;;
16640;SDS011;8434;47.990;7.880;2022-10-18T10:45:54;9.75;;;3.03;;
16640;SDS011;8434;47.990;7.880;2022-10-18T10:48:44;7.82;;;2.10;;
16640;SDS011;8434;47.990;7.880;2022-10-18T10:51:30;3.92;;;2.55;;
16640;SDS011;8434;47.990;7.880;2022-10-18T10:54:16;4.70;;;2.40;;
16640;SDS011;8434;47.990;7.880;2022-10-18T10:57:04;5.30;;;2.20;;
16640;SDS011;8434;47.990;7.880;2022-10-18T10:59:55;6.95;;;2.63;;
16640;SDS011;8434;47.990;7.880;2022-10-18T11:02:40;4.25;;;2.20;;
16640;SDS011;8434;47.990;7.880;2022-10-18T11:05:26;3.95;;;2.00;;
16640;SDS011;8434;47.990;7.880;2022-10-18T11:08:12;6.20;;;2.53;;
16640;SDS011;8434;47.990;7.880;2022-10-18T11:11:01;4.45;;;2.45;;
16640;SDS011;8434;47.990;7.880;2022-10-18T11:13:47;5.35;;;2.85;;
16640;SDS011;8434;47.990;7.880;2022-10-18T11:16:34;4.93;;;2.35;;
16640;SDS011;8434;47.990;7.880;2022-10-18T11:19:27;7.15;;;2.60;;
16640;SDS011;8434;47.990;7.880;2022-10-18T11:22:14;7.45;;;2.55;;
16640;SDS011;8434;47.990;7.880;2022-10-18T11:25:01;5.22;;;2.30;;
16640;SDS011;8434;47.990;7.880;2022-10-18T11:27:47;4.32;;;2.40;;
16640;SDS011;8434;47.990;7.880;2022-10-18T11:30:41;7.10;;;2.90;;
16640;SDS011;8434;47.990;7.880;2022-10-18T11:33:30;5.57;;;2.70;;
16640;SDS011;8434;47.990;7.880;2022-10-18T11:36:17;3.58;;;2.70;;
16640;SDS011;8434;47.990;7.880;2022-10-18T11:39:06;4.32;;;2.70;;
16640;SDS011;8434;47.990;7.880;2022-10-18T11:41:54;5.55;;;2.90;;
16640;SDS011;8434;47.990;7.880;2022-10-18T11:44:41;4.55;;;2.22;;
16640;SDS011;8434;47.990;7.880;2022-10-18T11:47:30;11.68;;;2.58;;
16640;SDS011;8434;47.990;7.880;2022-10-18T11:50:23;4.28;;;2.25;;
16640;SDS011;8434;47.990;7.880;2022-10-18T11:53:12;6.13;;;2.55;;
16640;SDS011;8434;47.990;7.880;2022-10-18T11:56:02;5.15;;;2.78;;
16640;SDS011;8434;47.990;7.880;2022-10-18T11:58:58;5.00;;;2.42;;
16640;SDS011;8434;47.990;7.880;2022-10-18T12:01:50;4.93;;;2.85;;
16640;SDS011;8434;47.990;7.880;2022-10-18T12:04:38;3.97;;;2.40;;
16640;SDS011;8434;47.990;7.880;2022-10-18T12:07:26;3.58;;;2.38;;
16640;SDS011;8434;47.990;7.880;2022-10-18T12:10:15;4.22;;;2.38;;
16640;SDS011;8434;47.990;7.880;2022-10-18T12:13:02;7.38;;;2.20;;
16640;SDS011;8434;47.990;7.880;2022-10-18T12:15:48;4.60;;;2.42;;
16640;SDS011;8434;47.990;7.880;2022-10-18T12:18:35;5.00;;;2.10;;
16640;SDS011;8434;47.990;7.880;2022-10-18T12:21:25;5.63;;;2.80;;
16640;SDS011;8434;47.990;7.880;2022-10-18T12:24:13;4.85;;;2.38;;
16640;SDS011;8434;47.990;7.880;2022-10-18T12:27:01;6.55;;;2.63;;
16640;SDS011;8434;47.990;7.880;2022-10-18T12:29:48;5.07;;;2.42;;
16640;SDS011;8434;47.990;7.880;2022-10-18T12:32:35;7.03;;;2.78;;
16640;SDS011;8434;47.990;7.880;2022-10-18T12:35:21;4.28;;;2.40;;
16640;SDS011;8434;47.990;7.880;2022-10-18T12:38:11;6.22;;;3.08;;
16640;SDS011;8434;47.990;7.880;2022-10-18T12:41:01;3.65;;;2.28;;
16640;SDS011;8434;47.990;7.880;2022-10-18T12:43:49;4.45;;;2.53;;
16640;SDS011;8434;47.990;7.880;2022-10-18T12:46:41;4.05;;;2.42;;
16640;SDS011;8434;47.990;7.880;2022-10-18T12:49:27;4.07;;;2.30;;
16640;SDS011;8434;47.990;7.880;2022-10-18T12:52:18;4.78;;;2.75;;
16640;SDS011;8434;47.990;7.880;2022-10-18T12:55:06;3.17;;;2.40;;
16640;SDS011;8434;47.990;7.880;2022-10-18T13:01:11;3.83;;;2.20;;
16640;SDS011;8434;47.990;7.880;2022-10-18T13:03:56;5.30;;;2.25;;
16640;SDS011;8434;47.990;7.880;2022-10-18T13:12:56;4.95;;;1.85;;
16640;SDS011;8434;47.990;7.880;2022-10-18T13:15:42;4.63;;;1.88;;
16640;SDS011;8434;47.990;7.880;2022-10-18T13:18:32;3.75;;;1.77;;
16640;SDS011;8434;47.990;7.880;2022-10-18T13:21:24;5.15;;;2.03;;
16640;SDS011;8434;47.990;7.880;2022-10-18T13:24:14;3.58;;;1.80;;
16640;SDS011;8434;47.990;7.880;2022-10-18T13:27:05;6.28;;;1.88;;
16640;SDS011;8434;47.990;7.880;2022-10-18T13:30:18;8.55;;;2.38;;
16640;SDS011;8434;47.990;7.880;2022-10-18T13:33:08;3.25;;;1.88;;
16640;SDS011;8434;47.990;7.880;2022-10-18T13:36:00;4.75;;;2.22;;
16640;SDS011;8434;47.990;7.880;2022-10-18T13:38:54;4.53;;;2.47;;
16640;SDS011;8434;47.990;7.880;2022-10-18T13:51:08;3.15;;;2.05;;
16640;SDS011;8434;47.990;7.880;2022-10-18T13:54:01;2.65;;;1.63;;
16640;SDS011;8434;47.990;7.880;2022-10-18T13:56:50;3.50;;;2.05;;
16640;SDS011;8434;47.990;7.880;2022-10-18T13:59:49;4.90;;;2.30;;
16640;SDS011;8434;47.990;7.880;2022-10-18T14:02:43;2.15;;;1.92;;
16640;SDS011;8434;47.990;7.880;2022-10-18T14:08:33;3.65;;;2.00;;
16640;SDS011;8434;47.990;7.880;2022-10-18T14:11:22;2.75;;;1.65;;
16640;SDS011;8434;47.990;7.880;2022-10-18T14:14:12;6.45;;;2.15;;
16640;SDS011;8434;47.990;7.880;2022-10-18T14:17:00;3.22;;;2.50;;
16640;SDS011;8434;47.990;7.880;2022-10-18T14:19:49;4.88;;;2.20;;
16640;SDS011;8434;47.990;7.880;2022-10-18T14:22:37;4.10;;;1.90;;
16640;SDS011;8434;47.990;7.880;2022-10-18T14:25:26;5.00;;;2.47;;
16640;SDS011;8434;47.990;7.880;2022-10-18T14:28:13;3.90;;;2.10;;
16640;SDS011;8434;47.990;7.880;2022-10-18T14:30:59;4.63;;;1.80;;
16640;SDS011;8434;47.990;7.880;2022-10-18T14:33:45;5.30;;;2.55;;
16640;SDS011;8434;47.990;7.880;2022-10-18T14:36:33;4.43;;;2.25;;
16640;SDS011;8434;47.990;7.880;2022-10-18T14:39:19;3.95;;;2.10;;
16640;SDS011;8434;47.990;7.880;2022-10-18T14:42:16;3.47;;;1.95;;
16640;SDS011;8434;47.990;7.880;2022-10-18T14:45:16;3.88;;;2.00;;
16640;SDS011;8434;47.990;7.880;2022-10-18T14:48:12;4.80;;;2.00;;
16640;SDS011;8434;47.990;7.880;2022-10-18T14:50:58;4.85;;;2.00;;
16640;SDS011;8434;47.990;7.880;2022-10-18T14:53:43;5.55;;;2.15;;
16640;SDS011;8434;47.990;7.880;2022-10-18T14:56:29;4.07;;;1.98;;
16640;SDS011;8434;47.990;7.880;2022-10-18T14:59:16;6.13;;;2.20;;
16640;SDS011;8434;47.990;7.880;2022-10-18T15:02:03;8.70;;;2.20;;
16640;SDS011;8434;47.990;7.880;2022-10-18T15:04:53;6.25;;;2.50;;
16640;SDS011;8434;47.990;7.880;2022-10-18T15:07:38;2.67;;;1.80;;
16640;SDS011;8434;47.990;7.880;2022-10-18T15:10:24;4.97;;;2.25;;
16640;SDS011;8434;47.990;7.880;2022-10-18T15:13:11;4.93;;;2.42;;
16640;SDS011;8434;47.990;7.880;2022-10-18T15:15:58;5.95;;;2.50;;
16640;SDS011;8434;47.990;7.880;2022-10-18T15:18:43;7.90;;;2.92;;
16640;SDS011;8434;47.990;7.880;2022-10-18T15:21:48;6.57;;;2.60;;
16640;SDS011;8434;47.990;7.880;2022-10-18T15:24:38;4.93;;;2.75;;
16640;SDS011;8434;47.990;7.880;2022-10-18T15:27:25;6.28;;;2.72;;
16640;SDS011;8434;47.990;7.880;2022-10-18T15:30:14;6.15;;;2.70;;
16640;SDS011;8434;47.990;7.880;2022-10-18T15:33:16;3.97;;;3.13;;
16640;SDS011;8434;47.990;7.880;2022-10-18T15:36:06;2.95;;;2.28;;
16640;SDS011;8434;47.990;7.880;2022-10-18T15:38:52;4.88;;;2.40;;
16640;SDS011;8434;47.990;7.880;2022-10-18T15:41:44;8.20;;;2.80;;
16640;SDS011;8434;47.990;7.880;2022-10-18T15:44:31;3.97;;;2.63;;
16640;SDS011;8434;47.990;7.880;2022-10-18T15:47:17;10.30;;;2.40;;
16640;SDS011;8434;47.990;7.880;2022-10-18T15:50:07;9.27;;;3.33;;
16640;SDS011;8434;47.990;7.880;2022-10-18T15:56:30;5.97;;;2.50;;
16640;SDS011;8434;47.990;7.880;2022-10-18T15:59:20;5.72;;;2.72;;
16640;SDS011;8434;47.990;7.880;2022-10-18T16:02:08;9.70;;;3.20;;
16640;SDS011;8434;47.990;7.880;2022-10-18T16:04:54;3.88;;;2.55;;
16640;SDS011;8434;47.990;7.880;2022-10-18T16:07:41;4.20;;;2.53;;
16640;SDS011;8434;47.990;7.880;2022-10-18T16:10:26;5.30;;;3.20;;
16640;SDS011;8434;47.990;7.880;2022-10-18T16:13:10;7.20;;;2.93;;
16640;SDS011;8434;47.990;7.880;2022-10-18T16:15:55;5.70;;;2.67;;
16640;SDS011;8434;47.990;7.880;2022-10-18T16:18:42;7.83;;;3.10;;
16640;SDS011;8434;47.990;7.880;2022-10-18T16:21:27;7.73;;;3.03;;
16640;SDS011;8434;47.990;7.880;2022-10-18T16:24:15;7.33;;;3.07;;
16640;SDS011;8434;47.990;7.880;2022-10-18T16:27:00;4.33;;;2.50;;
16640;SDS011;8434;47.990;7.880;2022-10-18T16:29:45;13.43;;;3.40;;
16640;SDS011;8434;47.990;7.880;2022-10-18T16:32:30;5.10;;;2.90;;
16640;SDS011;8434;47.990;7.880;2022-10-18T16:35:15;8.53;;;3.13;;
16640;SDS011;8434;47.990;7.880;2022-10-18T16:38:00;7.90;;;3.43;;
16640;SDS011;8434;47.990;7.880;2022-10-18T16:40:47;7.10;;;3.20;;
16640;SDS011;8434;47.990;7.880;2022-10-18T16:43:32;6.40;;;3.23;;
16640;SDS011;8434;47.990;7.880;2022-10-18T16:46:18;10.93;;;3.33;;
16640;SDS011;8434;47.990;7.880;2022-10-18T16:49:04;6.07;;;3.33;;
16640;SDS011;8434;47.990;7.880;2022-10-18T16:51:49;8.90;;;3.50;;
16640;SDS011;8434;47.990;7.880;2022-10-18T16:54:34;8.37;;;3.40;;
16640;SDS011;8434;47.990;7.880;2022-10-18T16:57:20;14.13;;;3.10;;
16640;SDS011;8434;47.990;7.880;2022-10-18T17:00:05;11.03;;;3.43;;
16640;SDS011;8434;47.990;7.880;2022-10-18T17:02:50;13.00;;;3.83;;
16640;SDS011;8434;47.990;7.880;2022-10-18T17:05:35;7.67;;;3.20;;
16640;SDS011;8434;47.990;7.880;2022-10-18T17:08:21;11.10;;;5.10;;
16640;SDS011;8434;47.990;7.880;2022-10-18T17:11:08;9.10;;;3.77;;
16640;SDS011;8434;47.990;7.880;2022-10-18T17:13:54;14.10;;;3.70;;
16640;SDS011;8434;47.990;7.880;2022-10-18T17:16:40;14.13;;;4.47;;
16640;SDS011;8434;47.990;7.880;2022-10-18T17:19:26;11.97;;;3.90;;
16640;SDS011;8434;47.990;7.880;2022-10-18T17:22:11;16.90;;;6.47;;
16640;SDS011;8434;47.990;7.880;2022-10-18T17:24:56;14.83;;;5.27;;
16640;SDS011;8434;47.990;7.880;2022-10-18T17:27:41;9.93;;;5.20;;
16640;SDS011;8434;47.990;7.880;2022-10-18T17:30:27;11.57;;;4.83;;
16640;SDS011;8434;47.990;7.880;2022-10-18T17:33:12;17.00;;;5.03;;
16640;SDS011;8434;47.990;7.880;2022-10-18T17:35:59;12.63;;;4.77;;
16640;SDS011;8434;47.990;7.880;2022-10-18T17:38:48;8.17;;;4.90;;